createdAt,value
2018-11-03T00:00:44.884Z,1.71
2018-11-03T00:06:03.449Z,1.71
2018-11-03T00:11:22.002Z,1.68
2018-11-03T00:16:40.500Z,1.57
2018-11-03T00:21:59.052Z,1.47
2018-11-03T00:27:17.555Z,1.59
2018-11-03T00:32:36.068Z,1.51
2018-11-03T00:37:54.612Z,1.56
2018-11-03T00:43:13.100Z,1.48
2018-11-03T00:48:31.650Z,1.56
2018-11-03T00:53:50.257Z,1.48
2018-11-03T00:59:08.815Z,1.42
2018-11-03T01:04:27.412Z,1.32
2018-11-03T01:09:45.951Z,1.30
2018-11-03T01:15:04.638Z,1.31
2018-11-03T01:20:23.207Z,1.39
2018-11-03T01:25:41.726Z,1.38
2018-11-03T01:31:00.260Z,1.36
2018-11-03T01:36:18.904Z,1.42
2018-11-03T01:41:37.451Z,1.45
2018-11-03T01:46:55.951Z,1.56
2018-11-03T01:52:14.487Z,1.56
2018-11-03T01:57:33.018Z,1.48
2018-11-03T02:02:51.530Z,1.53
2018-11-03T02:08:10.082Z,1.73
2018-11-03T02:13:28.573Z,1.58
2018-11-03T02:18:47.126Z,1.48
2018-11-03T02:24:06.153Z,1.50
2018-11-03T02:29:24.687Z,1.43
2018-11-03T02:34:43.234Z,1.44
2018-11-03T02:40:01.791Z,1.45
2018-11-03T02:45:20.351Z,1.52
2018-11-03T02:50:38.883Z,1.49
2018-11-03T02:55:57.461Z,1.57
2018-11-03T03:01:16.043Z,1.63
2018-11-03T03:06:34.610Z,1.63
2018-11-03T03:11:53.222Z,1.56
2018-11-03T03:17:11.728Z,1.51
2018-11-03T03:22:30.200Z,1.57
2018-11-03T03:27:48.784Z,1.48
2018-11-03T03:33:07.335Z,1.35
2018-11-03T03:38:25.857Z,1.35
2018-11-03T03:43:44.318Z,1.42
2018-11-03T03:49:02.804Z,1.35
2018-11-03T03:54:21.327Z,1.22
2018-11-03T03:59:39.932Z,1.21
2018-11-03T04:04:58.467Z,1.12
2018-11-03T04:10:16.974Z,1.12
2018-11-03T04:15:35.497Z,1.15
2018-11-03T04:20:53.999Z,1.17
2018-11-03T04:26:12.508Z,1.08
2018-11-03T04:31:31.020Z,1.03
2018-11-03T04:36:49.539Z,1.09
2018-11-03T04:42:08.068Z,1.03
2018-11-03T04:47:27.164Z,1.06
2018-11-03T04:52:45.730Z,0.96
2018-11-03T04:58:04.232Z,0.88
2018-11-03T05:03:22.792Z,0.59
2018-11-03T05:08:41.359Z,0.75
2018-11-03T05:13:59.882Z,0.77
2018-11-03T05:19:18.395Z,0.82
2018-11-03T05:24:36.943Z,0.81
2018-11-03T05:29:55.590Z,0.75
2018-11-03T05:35:14.191Z,0.94
2018-11-03T05:40:32.754Z,0.86
2018-11-03T05:45:51.296Z,0.76
2018-11-03T05:51:09.943Z,0.65
2018-11-03T05:56:28.504Z,0.69
2018-11-03T06:01:47.139Z,0.62
2018-11-03T06:07:05.718Z,0.59
2018-11-03T06:12:24.214Z,0.66
2018-11-03T06:17:42.747Z,0.54
2018-11-03T06:23:01.432Z,0.59
2018-11-03T06:28:20.032Z,0.54
2018-11-03T06:33:38.634Z,0.63
2018-11-03T06:39:03.853Z,0.68
2018-11-03T06:44:22.251Z,0.66
2018-11-03T06:49:40.793Z,0.63
2018-11-03T06:54:59.291Z,0.75
2018-11-03T07:00:17.831Z,0.90
2018-11-03T07:05:37.112Z,0.79
2018-11-03T07:10:55.744Z,0.82
2018-11-03T07:16:14.275Z,0.90
2018-11-03T07:21:33.116Z,1.00
2018-11-03T07:26:51.579Z,1.23
2018-11-03T07:32:10.141Z,1.41
2018-11-03T07:37:28.648Z,1.72
2018-11-03T07:42:47.290Z,1.69
2018-11-03T07:48:06.506Z,1.91
2018-11-03T07:53:25.009Z,2.07
2018-11-03T07:58:43.659Z,2.16
2018-11-03T08:04:02.398Z,2.19
2018-11-03T08:09:20.968Z,2.47
2018-11-03T08:14:39.626Z,2.47
2018-11-03T08:19:58.151Z,2.56
2018-11-03T08:25:16.726Z,2.44
2018-11-03T08:30:35.249Z,2.50
2018-11-03T08:35:53.772Z,2.69
2018-11-03T08:41:12.317Z,2.79
2018-11-03T08:46:30.870Z,2.84
2018-11-03T08:51:49.403Z,2.95
2018-11-03T08:57:07.874Z,3.08
2018-11-03T09:02:26.427Z,3.28
2018-11-03T09:07:44.935Z,3.45
2018-11-03T09:13:03.547Z,3.56
2018-11-03T09:18:22.122Z,3.69
2018-11-03T09:23:41.444Z,4.04
2018-11-03T09:29:00.093Z,4.13
2018-11-03T09:34:18.663Z,4.33
2018-11-03T09:39:37.235Z,4.59
2018-11-03T09:44:55.776Z,4.77
2018-11-03T09:50:15.409Z,5.05
2018-11-03T09:55:33.940Z,5.30
2018-11-03T10:00:52.510Z,5.34
2018-11-03T10:06:11.798Z,5.44
2018-11-03T10:11:30.288Z,5.82
2018-11-03T10:16:48.856Z,5.95
2018-11-03T10:22:07.408Z,6.14
2018-11-03T10:27:25.905Z,6.36
2018-11-03T10:32:44.571Z,6.51
2018-11-03T10:38:03.122Z,6.65
2018-11-03T10:43:21.659Z,6.75
2018-11-03T10:48:40.243Z,6.90
2018-11-03T10:53:58.751Z,7.01
2018-11-03T10:59:17.271Z,7.55
2018-11-03T11:04:41.110Z,7.68
2018-11-03T11:10:04.752Z,7.97
2018-11-03T11:15:23.292Z,7.93
2018-11-03T11:20:41.787Z,7.83
2018-11-03T11:26:00.373Z,7.68
2018-11-03T11:31:19.004Z,7.62
2018-11-03T11:36:37.473Z,7.72
2018-11-03T11:41:55.986Z,7.77
2018-11-03T11:47:14.626Z,7.84
2018-11-03T11:52:33.234Z,7.98
2018-11-03T11:57:51.947Z,8.00
2018-11-03T12:03:10.628Z,8.01
2018-11-03T12:08:29.127Z,8.11
2018-11-03T12:13:47.626Z,8.16
2018-11-03T12:19:06.309Z,8.21
2018-11-03T12:24:25.482Z,8.21
2018-11-03T12:29:43.968Z,8.63
2018-11-03T12:35:03.360Z,8.47
2018-11-03T12:40:21.880Z,8.46
2018-11-03T12:45:40.376Z,8.45
2018-11-03T12:50:59.003Z,8.50
2018-11-03T12:56:17.507Z,8.47
2018-11-03T13:01:36.114Z,8.50
2018-11-03T13:06:54.591Z,8.47
2018-11-03T13:12:13.146Z,8.44
2018-11-03T13:17:31.623Z,8.48
2018-11-03T13:22:50.300Z,8.41
2018-11-03T13:33:26.859Z,8.42
2018-11-03T13:38:45.321Z,8.36
2018-11-03T13:44:03.838Z,8.33
2018-11-03T13:49:22.295Z,8.35
2018-11-03T13:54:40.765Z,8.37
2018-11-03T13:59:59.248Z,8.21
2018-11-03T14:05:17.862Z,8.21
2018-11-03T14:10:36.335Z,8.34
2018-11-03T14:15:54.839Z,8.34
2018-11-03T14:21:13.423Z,8.19
2018-11-03T14:26:31.979Z,8.25
2018-11-03T14:31:50.525Z,8.26
2018-11-03T14:37:09.669Z,8.56
2018-11-03T14:42:28.197Z,8.35
2018-11-03T14:47:46.723Z,8.03
2018-11-03T14:53:05.292Z,7.88
2018-11-03T14:58:23.817Z,7.71
2018-11-03T15:03:42.761Z,7.66
2018-11-03T15:09:01.323Z,7.50
2018-11-03T15:14:19.965Z,7.50
2018-11-03T15:19:38.634Z,7.70
2018-11-03T15:24:57.198Z,7.49
2018-11-03T15:30:15.979Z,7.77
2018-11-03T15:35:34.515Z,7.45
2018-11-03T15:40:53.602Z,6.98
2018-11-03T15:46:12.112Z,6.74
2018-11-03T15:51:30.610Z,6.56
2018-11-03T15:56:49.215Z,6.25
2018-11-03T16:02:07.740Z,6.06
2018-11-03T16:07:26.279Z,5.87
2018-11-03T16:12:44.880Z,5.76
2018-11-03T16:18:03.410Z,5.61
2018-11-03T16:23:22.130Z,5.44
2018-11-03T16:28:41.384Z,5.30
2018-11-03T16:34:00.596Z,5.28
2018-11-03T16:39:19.144Z,5.15
2018-11-03T16:44:37.780Z,4.95
2018-11-03T16:49:56.267Z,4.89
2018-11-03T16:55:15.494Z,4.76
2018-11-03T17:00:33.952Z,4.66
2018-11-03T17:05:52.493Z,4.60
2018-11-03T17:11:11.783Z,4.55
2018-11-03T17:16:30.347Z,4.45
2018-11-03T17:21:48.870Z,4.35
2018-11-03T17:27:07.334Z,4.25
2018-11-03T17:32:25.887Z,4.18
2018-11-03T17:37:44.875Z,4.09
2018-11-03T17:43:03.427Z,4.02
2018-11-03T17:48:21.950Z,3.90
2018-11-03T17:53:40.529Z,3.60
2018-11-03T17:58:59.060Z,3.56
2018-11-03T18:04:17.725Z,3.62
2018-11-03T18:09:36.928Z,3.44
2018-11-03T18:14:55.499Z,3.30
2018-11-03T18:20:13.981Z,3.32
2018-11-03T18:25:32.613Z,3.27
2018-11-03T18:30:51.186Z,3.12
2018-11-03T18:36:09.815Z,3.01
2018-11-03T18:41:28.543Z,2.98
2018-11-03T18:46:47.232Z,2.92
2018-11-03T18:52:05.943Z,2.88
2018-11-03T18:57:24.435Z,2.80
2018-11-03T19:02:42.934Z,2.75
2018-11-03T19:08:01.529Z,2.67
2018-11-03T19:13:20.111Z,2.62
2018-11-03T19:18:38.666Z,2.55
2018-11-03T19:23:57.274Z,2.51
2018-11-03T19:29:15.772Z,2.42
2018-11-03T19:34:34.384Z,2.29
2018-11-03T19:39:53.057Z,2.26
2018-11-03T19:45:12.340Z,2.19
2018-11-03T19:50:30.911Z,2.19
2018-11-03T19:55:49.591Z,2.00
2018-11-03T20:01:08.052Z,1.95
2018-11-03T20:06:26.569Z,1.88
2018-11-03T20:11:45.138Z,1.81
2018-11-03T20:17:03.681Z,1.76
2018-11-03T20:22:22.218Z,1.59
2018-11-03T20:27:40.815Z,1.45
2018-11-03T20:32:59.366Z,1.40
2018-11-03T20:38:17.897Z,1.48
2018-11-03T20:43:36.524Z,1.42
2018-11-03T20:48:55.123Z,1.37
2018-11-03T20:54:13.644Z,1.28
2018-11-03T20:59:32.174Z,1.19
2018-11-03T21:04:50.684Z,1.07
2018-11-03T21:10:09.288Z,1.03
2018-11-03T21:15:27.965Z,0.94
2018-11-03T21:20:46.670Z,0.87
2018-11-03T21:26:05.245Z,0.80
2018-11-03T21:31:23.739Z,0.76
2018-11-03T21:36:42.255Z,0.76
2018-11-03T21:42:01.029Z,0.80
2018-11-03T21:47:19.607Z,0.81
2018-11-03T21:52:38.144Z,0.79
2018-11-03T21:57:56.653Z,0.75
2018-11-03T22:03:15.238Z,0.66
2018-11-03T22:08:33.731Z,0.71
2018-11-03T22:13:52.452Z,0.65
2018-11-03T22:19:10.990Z,0.67
2018-11-03T22:24:29.880Z,0.73
2018-11-03T22:29:48.486Z,0.74
2018-11-03T22:35:07.587Z,0.70
2018-11-03T22:40:26.140Z,0.72
2018-11-03T22:45:44.661Z,0.61
2018-11-03T22:51:03.245Z,0.63
2018-11-03T22:56:21.680Z,0.56
2018-11-03T23:01:41.291Z,0.54
2018-11-03T23:07:01.279Z,0.53
2018-11-03T23:12:19.764Z,0.58
2018-11-03T23:17:38.279Z,0.46
2018-11-03T23:22:56.950Z,0.43
2018-11-03T23:28:15.488Z,0.47
2018-11-03T23:33:34.116Z,0.51
2018-11-03T23:38:52.647Z,0.41
2018-11-03T23:44:11.476Z,0.43
2018-11-03T23:49:29.957Z,0.38
2018-11-03T23:54:48.507Z,0.39
